createdAt,value
2019-04-21T00:05:16.488Z,26.10
2019-04-21T00:10:28.432Z,26.80
2019-04-21T00:15:24.364Z,26.30
2019-04-21T00:20:30.904Z,26.00
2019-04-21T00:25:42.691Z,26.60
2019-04-21T00:30:58.115Z,25.90
2019-04-21T00:35:47.734Z,26.40
2019-04-21T00:41:05.483Z,26.40
2019-04-21T00:45:59.958Z,26.40
2019-04-21T00:51:51.080Z,26.30
2019-04-21T00:56:30.706Z,26.20
2019-04-21T01:01:32.819Z,26.20
2019-04-21T01:06:43.152Z,26.60
2019-04-21T01:11:44.466Z,27.20
2019-04-21T01:16:51.458Z,26.60
2019-04-21T01:21:33.904Z,26.00
2019-04-21T01:26:48.209Z,26.70
2019-04-21T01:32:10.468Z,26.40
2019-04-21T01:37:03.904Z,25.80
2019-04-21T01:42:15.743Z,26.20
2019-04-21T01:47:17.382Z,26.80
2019-04-21T01:52:38.429Z,27.20
2019-04-21T01:57:52.718Z,26.40
2019-04-21T02:03:16.520Z,30.10
2019-04-21T02:08:05.419Z,29.80
2019-04-21T02:13:12.092Z,32.40
2019-04-21T02:18:22.092Z,31.50
2019-04-21T02:28:42.362Z,31.10
2019-04-21T02:34:00.658Z,29.90
2019-04-21T02:39:08.384Z,28.30
2019-04-21T02:44:10.461Z,27.50
2019-04-21T02:49:25.650Z,27.40
2019-04-21T02:54:49.620Z,28.20
2019-04-21T03:05:21.293Z,31.70
2019-04-21T03:10:22.294Z,33.40
2019-04-21T03:15:31.525Z,34.20
2019-04-21T03:20:35.342Z,32.20
2019-04-21T03:31:05.977Z,34.90
2019-04-21T03:40:57.786Z,37.10
2019-04-21T03:46:28.569Z,36.90
2019-04-21T03:51:12.479Z,36.30
2019-04-21T03:56:27.035Z,36.30
2019-04-21T04:01:48.691Z,35.00
2019-04-21T04:12:09.094Z,35.70
2019-04-21T04:22:22.858Z,36.00
2019-04-21T04:27:47.036Z,37.00
2019-04-21T04:32:40.140Z,36.50
2019-04-21T04:37:36.234Z,37.70
2019-04-21T04:47:59.135Z,36.80
2019-04-21T04:53:01.567Z,37.00
2019-04-21T04:58:16.083Z,37.80
2019-04-21T05:03:29.621Z,37.90
2019-04-21T05:08:39.460Z,36.80
2019-04-21T05:13:37.546Z,37.00
2019-04-21T05:18:47.072Z,37.60
2019-04-21T05:23:37.712Z,38.80
2019-04-21T05:28:37.637Z,39.40
2019-04-21T05:33:59.043Z,39.20
2019-04-21T05:39:14.579Z,38.80
2019-04-21T05:44:35.553Z,40.80
2019-04-21T05:49:41.489Z,39.90
2019-04-21T05:54:57.877Z,39.20
2019-04-21T05:59:53.708Z,40.00
2019-04-21T06:10:12.297Z,39.90
2019-04-21T06:15:22.760Z,41.30
2019-04-21T06:20:27.140Z,41.70
2019-04-21T06:30:53.028Z,40.90
2019-04-21T06:36:32.026Z,40.90
2019-04-21T06:41:29.750Z,41.10
2019-04-21T06:46:35.507Z,40.60
2019-04-21T06:51:33.758Z,40.10
2019-04-21T06:56:48.042Z,37.10
2019-04-21T07:01:48.804Z,33.90
2019-04-21T07:06:56.225Z,33.00
2019-04-21T07:11:55.096Z,29.60
2019-04-21T07:17:11.607Z,29.40
2019-04-21T07:22:14.590Z,29.10
2019-04-21T07:27:16.270Z,29.30
2019-04-21T07:32:20.985Z,29.20
2019-04-21T07:37:29.989Z,30.20
2019-04-21T07:42:32.498Z,30.10
2019-04-21T07:47:46.338Z,28.60
2019-04-21T07:53:07.031Z,27.60
2019-04-21T07:58:02.684Z,27.50
2019-04-21T08:03:15.941Z,26.50
2019-04-21T08:08:52.507Z,26.30
2019-04-21T08:14:03.532Z,26.20
2019-04-21T08:19:15.591Z,26.70
2019-04-21T08:24:18.213Z,24.80
2019-04-21T08:29:33.080Z,24.60
2019-04-21T08:34:35.916Z,27.10
2019-04-21T08:39:49.380Z,23.70
2019-04-21T08:44:47.914Z,22.80
2019-04-21T08:49:55.360Z,25.90
2019-04-21T08:55:10.905Z,23.90
2019-04-21T09:00:26.564Z,21.80
2019-04-21T09:05:31.255Z,20.60
2019-04-21T09:10:35.637Z,20.70
2019-04-21T09:15:46.239Z,19.00
2019-04-21T09:20:52.602Z,20.30
2019-04-21T09:26:02.163Z,19.40
2019-04-21T09:30:52.473Z,18.30
2019-04-21T09:35:58.779Z,18.20
2019-04-21T09:40:57.875Z,17.20
2019-04-21T09:46:02.203Z,16.90
2019-04-21T09:51:06.555Z,15.20
2019-04-21T09:56:16.045Z,14.60
2019-04-21T10:01:25.397Z,18.00
2019-04-21T10:06:23.777Z,16.50
2019-04-21T10:11:28.721Z,14.90
2019-04-21T10:17:13.174Z,15.80
2019-04-21T10:22:19.033Z,15.60
2019-04-21T10:27:25.440Z,14.20
2019-04-21T10:32:30.675Z,12.80
2019-04-21T10:37:47.277Z,9.80
2019-04-21T10:42:43.622Z,13.10
2019-04-21T10:47:49.346Z,10.20
2019-04-21T10:53:18.884Z,12.30
2019-04-21T10:58:29.924Z,12.10
2019-04-21T11:03:44.641Z,10.60
2019-04-21T11:08:53.858Z,11.80
2019-04-21T11:13:57.315Z,13.40
2019-04-21T11:19:02.436Z,12.10
2019-04-21T11:24:08.195Z,12.60
2019-04-21T11:29:14.862Z,12.90
2019-04-21T11:34:21.096Z,10.80
2019-04-21T11:39:42.175Z,10.50
2019-04-21T11:44:39.490Z,11.70
2019-04-21T11:49:45.637Z,12.70
2019-04-21T11:54:51.034Z,12.90
2019-04-21T11:59:57.576Z,12.60
2019-04-21T12:05:03.711Z,14.20
2019-04-21T12:10:09.241Z,12.50
2019-04-21T12:15:14.639Z,13.40
2019-04-21T12:20:20.887Z,11.70
2019-04-21T12:25:29.269Z,11.80
2019-04-21T12:30:35.642Z,11.80
2019-04-21T12:35:41.847Z,12.30
2019-04-21T12:40:46.695Z,10.40
2019-04-21T12:45:52.009Z,13.30
2019-04-21T12:50:57.533Z,11.90
2019-04-21T12:56:02.134Z,12.50
2019-04-21T13:01:07.145Z,12.00
2019-04-21T13:06:11.747Z,13.20
2019-04-21T13:11:17.119Z,13.20
2019-04-21T13:16:21.202Z,12.80
2019-04-21T13:21:31.995Z,11.80
2019-04-21T13:26:43.914Z,11.70
2019-04-21T13:31:44.528Z,12.30
2019-04-21T13:36:49.819Z,13.00
2019-04-21T13:42:06.348Z,13.30
2019-04-21T13:47:02.734Z,12.00
2019-04-21T13:52:08.842Z,10.70
2019-04-21T13:57:23.432Z,11.70
2019-04-21T14:02:28.960Z,12.80
2019-04-21T14:07:34.406Z,9.60
2019-04-21T14:12:40.486Z,11.70
2019-04-21T14:17:44.987Z,13.10
2019-04-21T14:22:49.691Z,10.90
2019-04-21T14:27:56.477Z,11.50
2019-04-21T14:33:04.375Z,11.00
2019-04-21T14:38:10.859Z,11.00
2019-04-21T14:43:18.502Z,9.30
2019-04-21T14:48:45.464Z,10.30
2019-04-21T14:54:27.273Z,10.80
2019-04-21T14:59:33.251Z,11.10
2019-04-21T15:04:39.804Z,12.20
2019-04-21T15:09:46.473Z,12.10
2019-04-21T15:14:53.692Z,11.90
2019-04-21T15:20:07.900Z,12.40
2019-04-21T15:25:08.003Z,11.60
2019-04-21T15:30:36.555Z,11.80
2019-04-21T15:35:42.838Z,12.00
2019-04-21T15:40:53.712Z,11.30
2019-04-21T15:45:55.335Z,10.90
2019-04-21T15:51:04.328Z,12.30
2019-04-21T15:56:12.980Z,12.50
2019-04-21T16:01:32.447Z,13.30
2019-04-21T16:06:37.372Z,12.40
2019-04-21T16:11:42.245Z,12.20
2019-04-21T16:16:47.435Z,12.60
2019-04-21T16:21:52.835Z,12.50
2019-04-21T16:27:01.695Z,13.60
2019-04-21T16:32:04.909Z,14.60
2019-04-21T16:37:09.811Z,12.80
2019-04-21T16:42:14.269Z,10.90
2019-04-21T16:47:21.389Z,11.40
2019-04-21T16:52:34.168Z,11.70
2019-04-21T16:58:04.279Z,12.20
2019-04-21T17:03:02.319Z,10.70
2019-04-21T17:08:11.107Z,11.30
2019-04-21T17:13:18.332Z,11.70
2019-04-21T17:18:40.655Z,12.70
2019-04-21T17:23:31.445Z,12.50
2019-04-21T17:28:38.526Z,14.10
2019-04-21T17:33:43.872Z,14.10
2019-04-21T17:38:50.453Z,13.40
2019-04-21T17:43:56.213Z,13.80
2019-04-21T17:49:03.065Z,15.40
2019-04-21T17:54:20.890Z,15.70
2019-04-21T17:59:51.222Z,15.00
2019-04-21T18:04:48.973Z,17.30
2019-04-21T18:10:01.656Z,17.30
2019-04-21T18:14:56.743Z,19.00
2019-04-21T18:20:02.073Z,19.20
2019-04-21T18:25:28.180Z,22.10
2019-04-21T18:30:58.046Z,21.60
2019-04-21T18:36:45.496Z,23.30
2019-04-21T18:42:09.414Z,22.90
2019-04-21T18:53:03.205Z,21.80
2019-04-21T18:57:56.653Z,23.50
2019-04-21T19:03:02.012Z,23.80
2019-04-21T19:08:26.529Z,24.60
2019-04-21T19:14:17.380Z,25.80
2019-04-21T19:19:37.958Z,25.80
2019-04-21T19:24:42.376Z,25.70
2019-04-21T19:34:26.758Z,25.50
2019-04-21T19:39:42.729Z,24.80
2019-04-21T19:44:53.802Z,25.30
2019-04-21T19:50:11.211Z,26.20
2019-04-21T19:54:58.630Z,25.60
2019-04-21T20:00:07.703Z,23.20
2019-04-21T20:05:24.357Z,24.60
2019-04-21T20:10:39.765Z,24.20
2019-04-21T20:15:50.969Z,24.70
2019-04-21T20:20:39.670Z,22.80
2019-04-21T20:25:49.789Z,25.00
2019-04-21T20:31:14.790Z,25.40
2019-04-21T20:36:23.901Z,24.60
2019-04-21T20:41:24.157Z,25.00
2019-04-21T20:46:32.675Z,23.60
2019-04-21T20:51:37.643Z,24.40
2019-04-21T20:56:45.149Z,24.20
2019-04-21T21:01:49.466Z,24.30
2019-04-21T21:06:54.968Z,24.50
2019-04-21T21:12:15.989Z,23.80
2019-04-21T21:17:13.425Z,22.00
2019-04-21T21:22:08.393Z,24.00
2019-04-21T21:27:19.557Z,25.70
2019-04-21T21:32:27.325Z,24.20
2019-04-21T21:37:36.281Z,23.70
2019-04-21T21:42:28.248Z,23.60
2019-04-21T21:47:50.921Z,22.20
2019-04-21T21:52:47.809Z,23.60
2019-04-21T21:57:49.823Z,24.50
2019-04-21T22:02:54.897Z,24.80
2019-04-21T22:07:58.633Z,24.10
2019-04-21T22:13:09.617Z,25.30
2019-04-21T22:18:30.072Z,24.30
2019-04-21T22:23:30.524Z,24.30
2019-04-21T22:28:27.555Z,22.80
2019-04-21T22:33:41.966Z,22.70
2019-04-21T22:38:52.153Z,22.30
2019-04-21T22:43:51.642Z,20.50
2019-04-21T22:48:59.527Z,20.40
2019-04-21T22:54:01.956Z,21.60
2019-04-21T22:59:09.665Z,20.10
2019-04-21T23:04:14.458Z,20.20
2019-04-21T23:09:22.542Z,19.60
2019-04-21T23:14:28.077Z,19.70
2019-04-21T23:19:47.766Z,19.20
2019-04-21T23:25:03.441Z,19.80
2019-04-21T23:30:13.539Z,19.60
2019-04-21T23:34:56.149Z,20.50
2019-04-21T23:40:10.678Z,19.50
2019-04-21T23:45:09.215Z,19.60
2019-04-21T23:50:24.740Z,19.40
2019-04-21T23:55:23.225Z,19.40
